sensor_id;sensor_type;location;lat;lon;timestamp;temperature;humidity
15906;DHT22;8051;50.820;4.884;2023-06-19T00:19:09;19.00;99.90
15906;DHT22;8051;50.820;4.884;2023-06-19T00:21:38;19.10;99.90
15906;DHT22;8051;50.820;4.884;2023-06-19T00:24:05;19.10;99.90
15906;DHT22;8051;50.820;4.884;2023-06-19T00:26:33;19.10;99.90
15906;DHT22;8051;50.820;4.884;2023-06-19T00:29:00;19.10;99.90
15906;DHT22;8051;50.820;4.884;2023-06-19T00:31:28;19.20;99.90
15906;DHT22;8051;50.820;4.884;2023-06-19T00:33:55;19.20;99.90
15906;DHT22;8051;50.820;4.884;2023-06-19T00:36:24;19.10;99.90
15906;DHT22;8051;50.820;4.884;2023-06-19T00:38:52;19.10;99.90
15906;DHT22;8051;50.820;4.884;2023-06-19T00:41:20;19.10;99.90
15906;DHT22;8051;50.820;4.884;2023-06-19T00:43:48;19.10;99.90
15906;DHT22;8051;50.820;4.884;2023-06-19T00:46:18;19.00;99.90
15906;DHT22;8051;50.820;4.884;2023-06-19T00:48:45;19.00;99.90
15906;DHT22;8051;50.820;4.884;2023-06-19T00:51:13;19.00;99.90
15906;DHT22;8051;50.820;4.884;2023-06-19T00:53:42;18.90;99.90
15906;DHT22;8051;50.820;4.884;2023-06-19T00:56:09;18.80;99.90
15906;DHT22;8051;50.820;4.884;2023-06-19T00:58:37;18.90;99.90
15906;DHT22;8051;50.820;4.884;2023-06-19T01:01:04;19.00;99.90
15906;DHT22;8051;50.820;4.884;2023-06-19T01:03:32;19.00;99.90
15906;DHT22;8051;50.820;4.884;2023-06-19T01:06:01;19.00;99.90
15906;DHT22;8051;50.820;4.884;2023-06-19T01:08:46;19.00;99.90
15906;DHT22;8051;50.820;4.884;2023-06-19T01:11:19;19.00;99.90
15906;DHT22;8051;50.820;4.884;2023-06-19T01:13:53;19.00;99.90
15906;DHT22;8051;50.820;4.884;2023-06-19T01:16:22;18.90;99.90
15906;DHT22;8051;50.820;4.884;2023-06-19T01:18:50;18.90;99.90
15906;DHT22;8051;50.820;4.884;2023-06-19T01:21:19;18.90;99.90
15906;DHT22;8051;50.820;4.884;2023-06-19T01:23:48;18.90;99.90
15906;DHT22;8051;50.820;4.884;2023-06-19T01:26:18;18.90;99.90
15906;DHT22;8051;50.820;4.884;2023-06-19T01:28:46;18.80;99.90
15906;DHT22;8051;50.820;4.884;2023-06-19T01:31:17;18.80;99.90
15906;DHT22;8051;50.820;4.884;2023-06-19T01:33:45;18.80;99.90
15906;DHT22;8051;50.820;4.884;2023-06-19T01:36:14;18.70;99.90
15906;DHT22;8051;50.820;4.884;2023-06-19T01:38:43;18.60;99.90
15906;DHT22;8051;50.820;4.884;2023-06-19T01:41:13;18.50;99.90
15906;DHT22;8051;50.820;4.884;2023-06-19T01:43:42;18.50;99.90
15906;DHT22;8051;50.820;4.884;2023-06-19T01:46:10;18.40;99.90
15906;DHT22;8051;50.820;4.884;2023-06-19T01:48:38;18.40;99.90
15906;DHT22;8051;50.820;4.884;2023-06-19T01:51:06;18.40;99.90
15906;DHT22;8051;50.820;4.884;2023-06-19T01:53:33;18.40;99.90
15906;DHT22;8051;50.820;4.884;2023-06-19T01:56:01;18.40;99.90
15906;DHT22;8051;50.820;4.884;2023-06-19T01:58:30;18.30;99.90
15906;DHT22;8051;50.820;4.884;2023-06-19T02:00:57;18.30;99.90
15906;DHT22;8051;50.820;4.884;2023-06-19T02:03:25;18.20;99.90
15906;DHT22;8051;50.820;4.884;2023-06-19T02:05:52;18.20;99.90
15906;DHT22;8051;50.820;4.884;2023-06-19T02:08:20;18.30;99.90
15906;DHT22;8051;50.820;4.884;2023-06-19T02:10:48;18.20;99.90
15906;DHT22;8051;50.820;4.884;2023-06-19T02:13:15;18.20;99.90
15906;DHT22;8051;50.820;4.884;2023-06-19T02:15:44;18.20;99.90
15906;DHT22;8051;50.820;4.884;2023-06-19T02:18:11;18.20;99.90
15906;DHT22;8051;50.820;4.884;2023-06-19T02:20:39;18.30;99.90
15906;DHT22;8051;50.820;4.884;2023-06-19T02:23:06;18.40;99.90
15906;DHT22;8051;50.820;4.884;2023-06-19T02:25:34;18.40;99.90
15906;DHT22;8051;50.820;4.884;2023-06-19T02:28:02;18.40;99.90
15906;DHT22;8051;50.820;4.884;2023-06-19T02:30:30;18.50;99.90
15906;DHT22;8051;50.820;4.884;2023-06-19T02:32:59;18.50;99.90
15906;DHT22;8051;50.820;4.884;2023-06-19T02:35:27;18.50;99.90
15906;DHT22;8051;50.820;4.884;2023-06-19T02:37:54;18.50;99.90
15906;DHT22;8051;50.820;4.884;2023-06-19T02:40:22;18.50;99.90
15906;DHT22;8051;50.820;4.884;2023-06-19T02:42:49;18.60;99.90
15906;DHT22;8051;50.820;4.884;2023-06-19T02:45:17;18.60;99.90
15906;DHT22;8051;50.820;4.884;2023-06-19T02:47:44;18.60;99.90
15906;DHT22;8051;50.820;4.884;2023-06-19T02:50:13;18.60;99.90
15906;DHT22;8051;50.820;4.884;2023-06-19T02:52:40;18.70;99.90
15906;DHT22;8051;50.820;4.884;2023-06-19T02:55:08;18.70;99.90
15906;DHT22;8051;50.820;4.884;2023-06-19T02:57:35;18.70;99.90
15906;DHT22;8051;50.820;4.884;2023-06-19T03:00:03;18.70;99.90
15906;DHT22;8051;50.820;4.884;2023-06-19T03:02:35;18.70;99.90
15906;DHT22;8051;50.820;4.884;2023-06-19T03:05:02;18.70;99.90
15906;DHT22;8051;50.820;4.884;2023-06-19T03:07:31;18.70;99.90
15906;DHT22;8051;50.820;4.884;2023-06-19T03:09:59;18.70;99.90
15906;DHT22;8051;50.820;4.884;2023-06-19T03:12:26;18.70;99.90
15906;DHT22;8051;50.820;4.884;2023-06-19T03:14:54;18.70;99.90
15906;DHT22;8051;50.820;4.884;2023-06-19T03:17:21;18.70;99.90
15906;DHT22;8051;50.820;4.884;2023-06-19T03:19:48;18.80;99.90
15906;DHT22;8051;50.820;4.884;2023-06-19T03:22:17;18.70;99.90
15906;DHT22;8051;50.820;4.884;2023-06-19T03:24:45;18.70;99.90
15906;DHT22;8051;50.820;4.884;2023-06-19T03:27:13;18.60;99.90
15906;DHT22;8051;50.820;4.884;2023-06-19T03:29:40;18.50;99.90
15906;DHT22;8051;50.820;4.884;2023-06-19T03:32:08;18.20;99.90
15906;DHT22;8051;50.820;4.884;2023-06-19T03:34:35;18.10;99.90
15906;DHT22;8051;50.820;4.884;2023-06-19T03:37:03;18.00;99.90
15906;DHT22;8051;50.820;4.884;2023-06-19T03:39:31;17.90;99.90
15906;DHT22;8051;50.820;4.884;2023-06-19T03:41:59;18.00;99.90
15906;DHT22;8051;50.820;4.884;2023-06-19T03:44:27;18.00;99.90
15906;DHT22;8051;50.820;4.884;2023-06-19T03:46:55;18.00;99.90
15906;DHT22;8051;50.820;4.884;2023-06-19T03:49:22;18.00;99.90
15906;DHT22;8051;50.820;4.884;2023-06-19T03:51:49;17.90;99.90
15906;DHT22;8051;50.820;4.884;2023-06-19T03:54:17;17.90;99.90
15906;DHT22;8051;50.820;4.884;2023-06-19T03:56:44;17.80;99.90
15906;DHT22;8051;50.820;4.884;2023-06-19T03:59:13;17.80;99.90
15906;DHT22;8051;50.820;4.884;2023-06-19T04:01:41;17.90;99.90
15906;DHT22;8051;50.820;4.884;2023-06-19T04:04:08;17.80;99.90
15906;DHT22;8051;50.820;4.884;2023-06-19T04:06:36;17.80;99.90
15906;DHT22;8051;50.820;4.884;2023-06-19T04:09:03;17.80;99.90
15906;DHT22;8051;50.820;4.884;2023-06-19T04:11:31;17.80;99.90
15906;DHT22;8051;50.820;4.884;2023-06-19T04:13:59;17.80;99.90
15906;DHT22;8051;50.820;4.884;2023-06-19T04:16:28;17.90;99.90
15906;DHT22;8051;50.820;4.884;2023-06-19T04:18:55;17.90;99.90
15906;DHT22;8051;50.820;4.884;2023-06-19T04:21:23;17.90;99.90
15906;DHT22;8051;50.820;4.884;2023-06-19T04:23:50;17.80;99.90
15906;DHT22;8051;50.820;4.884;2023-06-19T04:26:18;17.80;99.90
15906;DHT22;8051;50.820;4.884;2023-06-19T04:28:47;17.80;99.90
15906;DHT22;8051;50.820;4.884;2023-06-19T04:31:14;17.80;99.90
15906;DHT22;8051;50.820;4.884;2023-06-19T04:33:46;17.70;99.90
15906;DHT22;8051;50.820;4.884;2023-06-19T04:36:13;17.70;99.90
15906;DHT22;8051;50.820;4.884;2023-06-19T04:38:41;17.80;99.90
15906;DHT22;8051;50.820;4.884;2023-06-19T04:41:10;17.70;99.90
15906;DHT22;8051;50.820;4.884;2023-06-19T04:43:37;17.80;99.90
15906;DHT22;8051;50.820;4.884;2023-06-19T04:46:07;17.90;99.90
15906;DHT22;8051;50.820;4.884;2023-06-19T04:48:34;18.00;99.90
15906;DHT22;8051;50.820;4.884;2023-06-19T04:51:04;18.00;99.90
15906;DHT22;8051;50.820;4.884;2023-06-19T04:53:31;18.10;99.90
15906;DHT22;8051;50.820;4.884;2023-06-19T04:55:59;18.20;99.90
15906;DHT22;8051;50.820;4.884;2023-06-19T04:58:26;18.20;99.90
15906;DHT22;8051;50.820;4.884;2023-06-19T05:00:54;18.20;99.90
15906;DHT22;8051;50.820;4.884;2023-06-19T05:03:21;18.30;99.90
15906;DHT22;8051;50.820;4.884;2023-06-19T05:05:49;18.20;99.90
15906;DHT22;8051;50.820;4.884;2023-06-19T05:08:17;18.20;99.90
15906;DHT22;8051;50.820;4.884;2023-06-19T05:10:45;18.20;99.90
15906;DHT22;8051;50.820;4.884;2023-06-19T05:13:12;18.10;99.90
15906;DHT22;8051;50.820;4.884;2023-06-19T05:15:40;18.10;99.90
15906;DHT22;8051;50.820;4.884;2023-06-19T05:18:07;18.20;99.90
15906;DHT22;8051;50.820;4.884;2023-06-19T05:20:35;18.60;99.90
15906;DHT22;8051;50.820;4.884;2023-06-19T05:23:02;19.00;99.90
15906;DHT22;8051;50.820;4.884;2023-06-19T05:25:31;19.40;99.90
15906;DHT22;8051;50.820;4.884;2023-06-19T05:27:58;19.60;99.90
15906;DHT22;8051;50.820;4.884;2023-06-19T05:30:26;19.80;99.90
15906;DHT22;8051;50.820;4.884;2023-06-19T05:32:53;20.10;99.90
15906;DHT22;8051;50.820;4.884;2023-06-19T05:35:21;20.50;99.90
15906;DHT22;8051;50.820;4.884;2023-06-19T05:37:48;20.80;99.90
15906;DHT22;8051;50.820;4.884;2023-06-19T05:40:16;21.00;99.90
15906;DHT22;8051;50.820;4.884;2023-06-19T05:42:45;21.10;99.90
15906;DHT22;8051;50.820;4.884;2023-06-19T05:45:12;21.30;99.90
15906;DHT22;8051;50.820;4.884;2023-06-19T05:47:40;21.40;99.90
15906;DHT22;8051;50.820;4.884;2023-06-19T05:50:08;21.20;99.90
15906;DHT22;8051;50.820;4.884;2023-06-19T05:52:35;21.20;99.90
15906;DHT22;8051;50.820;4.884;2023-06-19T05:55:08;21.10;99.90
15906;DHT22;8051;50.820;4.884;2023-06-19T05:57:35;21.20;99.90
15906;DHT22;8051;50.820;4.884;2023-06-19T06:00:06;21.10;99.90
15906;DHT22;8051;50.820;4.884;2023-06-19T06:02:37;21.00;99.90
15906;DHT22;8051;50.820;4.884;2023-06-19T06:05:05;21.00;99.90
15906;DHT22;8051;50.820;4.884;2023-06-19T06:07:34;21.00;99.90
15906;DHT22;8051;50.820;4.884;2023-06-19T06:10:02;21.00;99.90
15906;DHT22;8051;50.820;4.884;2023-06-19T06:12:33;20.80;99.90
15906;DHT22;8051;50.820;4.884;2023-06-19T06:15:00;20.90;99.90
15906;DHT22;8051;50.820;4.884;2023-06-19T06:17:29;21.00;99.90
15906;DHT22;8051;50.820;4.884;2023-06-19T06:19:57;21.10;99.90
15906;DHT22;8051;50.820;4.884;2023-06-19T06:22:24;21.20;99.90
15906;DHT22;8051;50.820;4.884;2023-06-19T06:24:52;21.30;99.90
15906;DHT22;8051;50.820;4.884;2023-06-19T06:27:20;21.40;99.90
15906;DHT22;8051;50.820;4.884;2023-06-19T06:29:47;21.40;99.90
15906;DHT22;8051;50.820;4.884;2023-06-19T06:32:15;21.40;99.90
15906;DHT22;8051;50.820;4.884;2023-06-19T06:34:44;21.40;99.90
15906;DHT22;8051;50.820;4.884;2023-06-19T06:37:11;21.40;99.90
15906;DHT22;8051;50.820;4.884;2023-06-19T06:39:38;21.30;99.90
15906;DHT22;8051;50.820;4.884;2023-06-19T06:42:06;21.20;99.90
15906;DHT22;8051;50.820;4.884;2023-06-19T06:44:35;21.20;99.90
15906;DHT22;8051;50.820;4.884;2023-06-19T06:47:02;21.20;99.90
15906;DHT22;8051;50.820;4.884;2023-06-19T06:49:30;21.30;99.90
15906;DHT22;8051;50.820;4.884;2023-06-19T06:51:59;21.30;99.90
15906;DHT22;8051;50.820;4.884;2023-06-19T06:54:26;21.30;99.90
15906;DHT22;8051;50.820;4.884;2023-06-19T06:56:54;21.40;99.90
15906;DHT22;8051;50.820;4.884;2023-06-19T06:59:24;21.40;99.90
15906;DHT22;8051;50.820;4.884;2023-06-19T07:01:53;21.40;99.90
15906;DHT22;8051;50.820;4.884;2023-06-19T07:04:20;21.40;99.90
15906;DHT22;8051;50.820;4.884;2023-06-19T07:06:48;21.40;99.90
15906;DHT22;8051;50.820;4.884;2023-06-19T07:09:17;21.40;99.90
15906;DHT22;8051;50.820;4.884;2023-06-19T07:11:45;21.30;99.90
15906;DHT22;8051;50.820;4.884;2023-06-19T07:14:12;21.20;99.90
15906;DHT22;8051;50.820;4.884;2023-06-19T07:16:39;21.00;99.90
15906;DHT22;8051;50.820;4.884;2023-06-19T07:19:07;21.00;99.90
15906;DHT22;8051;50.820;4.884;2023-06-19T07:21:34;20.60;99.90
15906;DHT22;8051;50.820;4.884;2023-06-19T07:24:02;20.50;99.90
15906;DHT22;8051;50.820;4.884;2023-06-19T07:26:32;20.50;99.90
15906;DHT22;8051;50.820;4.884;2023-06-19T07:29:00;20.30;99.90
15906;DHT22;8051;50.820;4.884;2023-06-19T07:31:27;20.30;99.90
15906;DHT22;8051;50.820;4.884;2023-06-19T07:33:55;20.40;99.90
15906;DHT22;8051;50.820;4.884;2023-06-19T07:36:22;20.50;99.90
15906;DHT22;8051;50.820;4.884;2023-06-19T07:38:50;20.70;99.90
15906;DHT22;8051;50.820;4.884;2023-06-19T07:41:17;20.90;99.90
15906;DHT22;8051;50.820;4.884;2023-06-19T07:43:46;21.00;99.90
15906;DHT22;8051;50.820;4.884;2023-06-19T07:46:13;21.30;99.90
15906;DHT22;8051;50.820;4.884;2023-06-19T07:48:41;21.30;99.90
15906;DHT22;8051;50.820;4.884;2023-06-19T07:51:09;21.20;99.90
15906;DHT22;8051;50.820;4.884;2023-06-19T07:53:37;21.10;99.90
15906;DHT22;8051;50.820;4.884;2023-06-19T07:56:05;21.10;99.90
15906;DHT22;8051;50.820;4.884;2023-06-19T07:58:34;21.10;99.90
15906;DHT22;8051;50.820;4.884;2023-06-19T08:01:03;21.10;99.90
15906;DHT22;8051;50.820;4.884;2023-06-19T08:03:30;21.30;99.90
15906;DHT22;8051;50.820;4.884;2023-06-19T08:05:58;21.60;99.90
15906;DHT22;8051;50.820;4.884;2023-06-19T08:08:26;21.50;99.90
15906;DHT22;8051;50.820;4.884;2023-06-19T08:10:53;21.00;99.90
15906;DHT22;8051;50.820;4.884;2023-06-19T08:13:21;20.90;99.90
15906;DHT22;8051;50.820;4.884;2023-06-19T08:15:49;21.20;99.90
15906;DHT22;8051;50.820;4.884;2023-06-19T08:18:18;21.40;99.90
15906;DHT22;8051;50.820;4.884;2023-06-19T08:20:45;21.50;99.90
15906;DHT22;8051;50.820;4.884;2023-06-19T08:23:13;21.70;99.90
15906;DHT22;8051;50.820;4.884;2023-06-19T08:25:41;21.90;99.90
15906;DHT22;8051;50.820;4.884;2023-06-19T08:28:08;22.20;99.90
15906;DHT22;8051;50.820;4.884;2023-06-19T08:30:36;22.60;99.90
15906;DHT22;8051;50.820;4.884;2023-06-19T08:33:03;22.50;99.90
15906;DHT22;8051;50.820;4.884;2023-06-19T08:35:32;22.50;99.90
15906;DHT22;8051;50.820;4.884;2023-06-19T08:37:59;22.70;99.90
15906;DHT22;8051;50.820;4.884;2023-06-19T08:40:27;22.90;99.90
15906;DHT22;8051;50.820;4.884;2023-06-19T08:42:54;23.00;99.90
15906;DHT22;8051;50.820;4.884;2023-06-19T08:45:21;22.90;99.90
15906;DHT22;8051;50.820;4.884;2023-06-19T08:47:49;22.50;99.90
15906;DHT22;8051;50.820;4.884;2023-06-19T08:50:16;22.30;99.90
15906;DHT22;8051;50.820;4.884;2023-06-19T08:52:44;22.20;99.90
15906;DHT22;8051;50.820;4.884;2023-06-19T08:55:11;22.20;99.90
15906;DHT22;8051;50.820;4.884;2023-06-19T08:57:39;22.40;99.90
15906;DHT22;8051;50.820;4.884;2023-06-19T09:00:07;22.50;99.90
15906;DHT22;8051;50.820;4.884;2023-06-19T09:02:44;22.50;99.90
15906;DHT22;8051;50.820;4.884;2023-06-19T09:05:13;22.40;99.90
15906;DHT22;8051;50.820;4.884;2023-06-19T09:07:41;22.40;99.90
15906;DHT22;8051;50.820;4.884;2023-06-19T09:10:16;22.80;99.90
15906;DHT22;8051;50.820;4.884;2023-06-19T09:12:44;22.90;99.90
15906;DHT22;8051;50.820;4.884;2023-06-19T09:15:12;23.20;99.90
15906;DHT22;8051;50.820;4.884;2023-06-19T09:17:39;23.30;99.90
15906;DHT22;8051;50.820;4.884;2023-06-19T09:20:08;23.60;99.90
15906;DHT22;8051;50.820;4.884;2023-06-19T09:22:38;23.70;99.90
15906;DHT22;8051;50.820;4.884;2023-06-19T09:25:07;23.80;99.90
15906;DHT22;8051;50.820;4.884;2023-06-19T09:27:41;23.80;99.90
15906;DHT22;8051;50.820;4.884;2023-06-19T09:30:15;23.80;99.90
15906;DHT22;8051;50.820;4.884;2023-06-19T09:32:43;23.80;99.90
15906;DHT22;8051;50.820;4.884;2023-06-19T09:35:10;23.80;99.90
15906;DHT22;8051;50.820;4.884;2023-06-19T09:37:38;23.90;99.90
15906;DHT22;8051;50.820;4.884;2023-06-19T09:40:07;24.00;99.90
15906;DHT22;8051;50.820;4.884;2023-06-19T09:42:38;24.20;99.90
15906;DHT22;8051;50.820;4.884;2023-06-19T09:45:08;24.10;99.90
15906;DHT22;8051;50.820;4.884;2023-06-19T09:47:37;23.80;99.90
15906;DHT22;8051;50.820;4.884;2023-06-19T09:50:05;24.10;99.90
15906;DHT22;8051;50.820;4.884;2023-06-19T09:52:33;24.10;99.90
15906;DHT22;8051;50.820;4.884;2023-06-19T09:55:41;24.20;99.90
15906;DHT22;8051;50.820;4.884;2023-06-19T10:01:41;24.40;99.90
15906;DHT22;8051;50.820;4.884;2023-06-19T10:04:11;24.70;99.90
15906;DHT22;8051;50.820;4.884;2023-06-19T10:06:43;25.40;99.90
15906;DHT22;8051;50.820;4.884;2023-06-19T10:09:11;26.00;99.90
15906;DHT22;8051;50.820;4.884;2023-06-19T10:11:47;26.10;99.90
15906;DHT22;8051;50.820;4.884;2023-06-19T10:14:17;26.10;99.90
15906;DHT22;8051;50.820;4.884;2023-06-19T10:16:46;26.20;99.90
15906;DHT22;8051;50.820;4.884;2023-06-19T10:19:15;26.20;99.90
15906;DHT22;8051;50.820;4.884;2023-06-19T10:21:47;26.10;99.90
15906;DHT22;8051;50.820;4.884;2023-06-19T10:24:15;26.10;99.90
15906;DHT22;8051;50.820;4.884;2023-06-19T10:26:56;25.80;99.90
15906;DHT22;8051;50.820;4.884;2023-06-19T10:29:24;25.70;99.90
15906;DHT22;8051;50.820;4.884;2023-06-19T10:31:55;25.80;99.90
15906;DHT22;8051;50.820;4.884;2023-06-19T10:34:32;25.70;99.90
15906;DHT22;8051;50.820;4.884;2023-06-19T10:37:00;25.50;99.90
15906;DHT22;8051;50.820;4.884;2023-06-19T10:39:27;25.40;99.90
15906;DHT22;8051;50.820;4.884;2023-06-19T10:41:54;25.30;99.90
15906;DHT22;8051;50.820;4.884;2023-06-19T10:44:23;25.40;99.90
15906;DHT22;8051;50.820;4.884;2023-06-19T10:46:53;25.20;99.90
15906;DHT22;8051;50.820;4.884;2023-06-19T10:49:21;25.10;99.90
15906;DHT22;8051;50.820;4.884;2023-06-19T10:51:48;25.20;99.90
15906;DHT22;8051;50.820;4.884;2023-06-19T10:54:15;25.40;99.90
15906;DHT22;8051;50.820;4.884;2023-06-19T10:56:42;25.50;99.90
15906;DHT22;8051;50.820;4.884;2023-06-19T10:59:10;25.70;99.90
15906;DHT22;8051;50.820;4.884;2023-06-19T11:01:40;25.70;99.90
15906;DHT22;8051;50.820;4.884;2023-06-19T11:04:09;25.60;99.90
15906;DHT22;8051;50.820;4.884;2023-06-19T11:06:39;25.60;99.90
15906;DHT22;8051;50.820;4.884;2023-06-19T11:09:07;25.60;99.90
15906;DHT22;8051;50.820;4.884;2023-06-19T11:11:36;25.40;99.90
15906;DHT22;8051;50.820;4.884;2023-06-19T11:14:03;25.20;99.90
15906;DHT22;8051;50.820;4.884;2023-06-19T11:16:31;25.20;99.90
15906;DHT22;8051;50.820;4.884;2023-06-19T11:18:58;25.20;99.90
15906;DHT22;8051;50.820;4.884;2023-06-19T11:21:30;25.40;99.90
15906;DHT22;8051;50.820;4.884;2023-06-19T11:24:00;25.40;99.90
15906;DHT22;8051;50.820;4.884;2023-06-19T11:26:27;25.40;99.90
15906;DHT22;8051;50.820;4.884;2023-06-19T11:28:54;25.40;99.90
15906;DHT22;8051;50.820;4.884;2023-06-19T11:31:26;25.60;99.90
15906;DHT22;8051;50.820;4.884;2023-06-19T11:33:58;25.70;99.90
15906;DHT22;8051;50.820;4.884;2023-06-19T11:36:27;25.90;99.90
15906;DHT22;8051;50.820;4.884;2023-06-19T11:38:55;25.50;99.90
15906;DHT22;8051;50.820;4.884;2023-06-19T11:41:27;25.40;99.90
15906;DHT22;8051;50.820;4.884;2023-06-19T11:44:02;25.40;99.90
15906;DHT22;8051;50.820;4.884;2023-06-19T11:46:30;25.40;99.90
15906;DHT22;8051;50.820;4.884;2023-06-19T11:49:07;25.60;99.90
15906;DHT22;8051;50.820;4.884;2023-06-19T11:51:35;26.00;99.90
15906;DHT22;8051;50.820;4.884;2023-06-19T11:54:05;26.10;99.90
15906;DHT22;8051;50.820;4.884;2023-06-19T11:56:33;25.90;99.90
15906;DHT22;8051;50.820;4.884;2023-06-19T11:59:01;25.90;99.90
15906;DHT22;8051;50.820;4.884;2023-06-19T12:01:29;26.10;99.90
15906;DHT22;8051;50.820;4.884;2023-06-19T12:03:57;26.10;99.90
15906;DHT22;8051;50.820;4.884;2023-06-19T12:06:24;26.00;99.90
15906;DHT22;8051;50.820;4.884;2023-06-19T12:08:52;26.10;99.90
15906;DHT22;8051;50.820;4.884;2023-06-19T12:11:20;26.50;99.90
15906;DHT22;8051;50.820;4.884;2023-06-19T12:13:49;26.50;99.90
15906;DHT22;8051;50.820;4.884;2023-06-19T12:16:16;26.50;99.90
15906;DHT22;8051;50.820;4.884;2023-06-19T12:18:44;26.30;99.90
15906;DHT22;8051;50.820;4.884;2023-06-19T12:21:11;26.20;99.90
15906;DHT22;8051;50.820;4.884;2023-06-19T12:23:38;26.30;99.90
15906;DHT22;8051;50.820;4.884;2023-06-19T12:26:05;26.40;99.90
15906;DHT22;8051;50.820;4.884;2023-06-19T12:28:32;26.40;99.90
15906;DHT22;8051;50.820;4.884;2023-06-19T12:31:01;26.20;99.90
15906;DHT22;8051;50.820;4.884;2023-06-19T12:33:29;26.20;99.90
15906;DHT22;8051;50.820;4.884;2023-06-19T12:35:58;26.40;99.90
15906;DHT22;8051;50.820;4.884;2023-06-19T12:38:25;26.30;99.90
15906;DHT22;8051;50.820;4.884;2023-06-19T12:40:53;26.60;99.90
15906;DHT22;8051;50.820;4.884;2023-06-19T12:43:21;26.80;99.90
15906;DHT22;8051;50.820;4.884;2023-06-19T12:45:48;27.00;99.90
15906;DHT22;8051;50.820;4.884;2023-06-19T12:48:17;27.20;99.90
15906;DHT22;8051;50.820;4.884;2023-06-19T12:50:44;26.90;99.90
15906;DHT22;8051;50.820;4.884;2023-06-19T12:53:11;26.80;99.90
15906;DHT22;8051;50.820;4.884;2023-06-19T12:55:38;26.80;99.90
15906;DHT22;8051;50.820;4.884;2023-06-19T12:58:05;26.90;99.90
15906;DHT22;8051;50.820;4.884;2023-06-19T13:00:32;27.30;99.90
15906;DHT22;8051;50.820;4.884;2023-06-19T13:03:00;27.20;99.90
15906;DHT22;8051;50.820;4.884;2023-06-19T13:05:29;27.10;99.90
15906;DHT22;8051;50.820;4.884;2023-06-19T13:07:56;27.20;99.90
15906;DHT22;8051;50.820;4.884;2023-06-19T13:10:23;27.30;99.90
15906;DHT22;8051;50.820;4.884;2023-06-19T13:12:50;27.40;99.90
15906;DHT22;8051;50.820;4.884;2023-06-19T13:15:18;27.50;99.90
15906;DHT22;8051;50.820;4.884;2023-06-19T13:17:45;27.60;99.90
15906;DHT22;8051;50.820;4.884;2023-06-19T13:20:12;27.40;99.90
15906;DHT22;8051;50.820;4.884;2023-06-19T13:22:41;27.20;99.90
15906;DHT22;8051;50.820;4.884;2023-06-19T13:25:08;27.00;99.90
15906;DHT22;8051;50.820;4.884;2023-06-19T13:27:35;27.10;99.90
15906;DHT22;8051;50.820;4.884;2023-06-19T13:30:03;27.20;99.90
15906;DHT22;8051;50.820;4.884;2023-06-19T13:32:30;27.40;99.90
15906;DHT22;8051;50.820;4.884;2023-06-19T13:34:57;27.40;99.90
15906;DHT22;8051;50.820;4.884;2023-06-19T13:37:24;26.90;99.90
15906;DHT22;8051;50.820;4.884;2023-06-19T13:39:53;26.70;99.90
15906;DHT22;8051;50.820;4.884;2023-06-19T13:42:20;26.90;99.90
15906;DHT22;8051;50.820;4.884;2023-06-19T13:44:47;27.10;99.90
15906;DHT22;8051;50.820;4.884;2023-06-19T13:47:15;27.40;99.90
15906;DHT22;8051;50.820;4.884;2023-06-19T13:49:42;27.50;99.90
15906;DHT22;8051;50.820;4.884;2023-06-19T13:52:10;27.20;99.90
15906;DHT22;8051;50.820;4.884;2023-06-19T13:54:38;27.00;99.90
15906;DHT22;8051;50.820;4.884;2023-06-19T13:57:07;27.10;99.90
15906;DHT22;8051;50.820;4.884;2023-06-19T13:59:35;27.40;99.90
15906;DHT22;8051;50.820;4.884;2023-06-19T14:02:02;27.60;99.90
15906;DHT22;8051;50.820;4.884;2023-06-19T14:04:30;27.90;99.90
15906;DHT22;8051;50.820;4.884;2023-06-19T14:06:57;28.30;99.90
15906;DHT22;8051;50.820;4.884;2023-06-19T14:09:25;29.00;99.90
15906;DHT22;8051;50.820;4.884;2023-06-19T14:11:52;29.40;99.90
15906;DHT22;8051;50.820;4.884;2023-06-19T14:14:21;29.30;99.90
15906;DHT22;8051;50.820;4.884;2023-06-19T14:16:48;29.30;99.90
15906;DHT22;8051;50.820;4.884;2023-06-19T14:19:16;29.60;99.90
15906;DHT22;8051;50.820;4.884;2023-06-19T14:21:43;29.70;99.90
15906;DHT22;8051;50.820;4.884;2023-06-19T14:24:11;29.90;99.90
15906;DHT22;8051;50.820;4.884;2023-06-19T14:26:38;29.80;99.90
15906;DHT22;8051;50.820;4.884;2023-06-19T14:29:06;29.70;99.90
15906;DHT22;8051;50.820;4.884;2023-06-19T14:31:35;29.90;99.90
15906;DHT22;8051;50.820;4.884;2023-06-19T14:34:03;29.70;99.90
15906;DHT22;8051;50.820;4.884;2023-06-19T14:36:30;29.70;99.90
15906;DHT22;8051;50.820;4.884;2023-06-19T14:38:57;29.90;99.90
15906;DHT22;8051;50.820;4.884;2023-06-19T14:41:25;30.20;99.90
15906;DHT22;8051;50.820;4.884;2023-06-19T14:43:52;30.30;99.90
15906;DHT22;8051;50.820;4.884;2023-06-19T14:46:20;30.20;99.90
15906;DHT22;8051;50.820;4.884;2023-06-19T14:48:49;30.50;99.90
15906;DHT22;8051;50.820;4.884;2023-06-19T14:51:16;30.90;99.90
15906;DHT22;8051;50.820;4.884;2023-06-19T14:53:43;30.90;99.90
15906;DHT22;8051;50.820;4.884;2023-06-19T14:56:11;30.70;99.90
15906;DHT22;8051;50.820;4.884;2023-06-19T14:58:38;30.70;99.90
15906;DHT22;8051;50.820;4.884;2023-06-19T15:01:06;30.90;99.90
15906;DHT22;8051;50.820;4.884;2023-06-19T15:03:33;31.00;99.90
15906;DHT22;8051;50.820;4.884;2023-06-19T15:06:03;31.10;99.90
15906;DHT22;8051;50.820;4.884;2023-06-19T15:08:31;31.20;99.90
15906;DHT22;8051;50.820;4.884;2023-06-19T15:11:00;31.10;99.90
15906;DHT22;8051;50.820;4.884;2023-06-19T15:13:28;30.70;99.90
15906;DHT22;8051;50.820;4.884;2023-06-19T15:15:56;30.40;99.90
15906;DHT22;8051;50.820;4.884;2023-06-19T15:18:24;30.40;99.90
15906;DHT22;8051;50.820;4.884;2023-06-19T15:20:51;30.40;99.90
15906;DHT22;8051;50.820;4.884;2023-06-19T15:23:20;30.40;99.90
15906;DHT22;8051;50.820;4.884;2023-06-19T15:25:48;30.50;99.90
15906;DHT22;8051;50.820;4.884;2023-06-19T15:28:15;30.20;99.90
15906;DHT22;8051;50.820;4.884;2023-06-19T15:30:44;30.00;99.90
15906;DHT22;8051;50.820;4.884;2023-06-19T15:33:12;30.00;99.90
15906;DHT22;8051;50.820;4.884;2023-06-19T15:35:39;30.50;99.90
15906;DHT22;8051;50.820;4.884;2023-06-19T15:38:07;30.60;99.90
15906;DHT22;8051;50.820;4.884;2023-06-19T15:40:36;31.20;99.90
15906;DHT22;8051;50.820;4.884;2023-06-19T15:43:04;32.10;99.90
15906;DHT22;8051;50.820;4.884;2023-06-19T15:45:32;32.90;99.90
15906;DHT22;8051;50.820;4.884;2023-06-19T15:48:00;33.40;99.90
15906;DHT22;8051;50.820;4.884;2023-06-19T15:50:28;33.40;99.90
15906;DHT22;8051;50.820;4.884;2023-06-19T15:52:55;33.40;99.90
15906;DHT22;8051;50.820;4.884;2023-06-19T15:55:23;32.60;99.90
15906;DHT22;8051;50.820;4.884;2023-06-19T15:57:53;31.60;99.90
15906;DHT22;8051;50.820;4.884;2023-06-19T16:00:21;30.60;99.90
15906;DHT22;8051;50.820;4.884;2023-06-19T16:02:48;30.30;99.90
15906;DHT22;8051;50.820;4.884;2023-06-19T16:05:16;29.60;99.90
15906;DHT22;8051;50.820;4.884;2023-06-19T16:07:43;29.10;99.90
15906;DHT22;8051;50.820;4.884;2023-06-19T16:10:11;29.00;99.90
15906;DHT22;8051;50.820;4.884;2023-06-19T16:12:38;29.00;99.90